Oxbow, ME (04764)

3:35 AM EDT on August 31, 2014 (GMT -0400)
Northern Maine Regional At Presque Isle | Change Station
CLOSE
Current Station
Airport
Location: Presque Isle,
Elevation: 479 ft
Nearby Weather Stations

Elev 479 ft 46.69 °N, 68.04 °W | Updated 20 minutes ago

Overcast
Overcast
61 °F
Feels Like 61 °F
N
9
Wind Variable Wind from South

Today
High -- | Low -- °F
--% Chance of Precip.
Yesterday
High -- | Low -- °F
Precip. -- in
5:53 AM 7:15 PM
Waxing Crescent, 28% visible
Pressure 29.95 in
Visibility 10.0 miles
Clouds Mostly Cloudy 9000 ft
Overcast 11000 ft
Dew Point 54 °F
Humidity 77%
Rainfall 0.00 in
Snow Depth Not available.
UV 0 out of 12
Pollen 6.80 out of 12
Ozone Good
PM2.5 Good
Flu Activity Not available.
METAR KPQI 310715Z AUTO 17008KT 10SM BKN090 OVC110 16/12 A2995 RMK AO1

More Conditions Fewer Conditions

Pressure 29.95 in
Visibility 10.0 miles
Clouds Mostly Cloudy 9000 ft
Overcast 11000 ft
Dew Point 54 °F
Humidity 77%
Rainfall 0.00 in
Snow Depth Not available.
UV 0 out of 12
Pollen 6.80 out of 12
Ozone Good
PM2.5 Good
Flu Activity Not available.
METAR KPQI 310715Z AUTO 17008KT 10SM BKN090 OVC110 16/12 A2995 RMK AO1

More Conditions Fewer Conditions

10-Day Weather Forecast

Almanac

Astronomy

Aug. 31, 2014 Rise Set
Actual Time 5:53 AM EDT 7:15 PM EDT
Civil Twilight 5:21 AM EDT 7:46 PM EDT
Nautical Twilight 4:44 AM EDT 8:23 PM EDT
Astronomical Twilight 4:03 AM EDT 9:03 PM EDT
Moon 11:57 AM EDT 10:05 PM EDT
Length of Visible Light 14h 24m
Length of Day
13h 21m
Tomorrow will be 3m 11s shorter.
Waxing Crescent, 28% of the Moon is Illuminated
Today
Waxing Crescent
Sep 2
First Quarter
Sep 8
Full
Sep 15
Last Quarter
Sep 24
New

Today's Extremes

State Highs State Lows

Community

WunderPhotos

Upload Photos

1,748,809 photos uploaded!

Nearby

Air Quality

  Air Quality AQ Index Pollutant
Yesterday Good
OZONE
Yesterday Good
PM2.5
Current Good
OZONE
Current Good
PM2.5
Sunday Good
OZONE
Sunday Good
PM2.5
Monday Good
OZONE
Monday Good
PM2.5
Tuesday Good
OZONE
Tuesday Good
PM2.5
Wednesday Good
OZONE
Wednesday Good
PM2.5

Snow Depth

Station Depth Elevation
No new snow has been reported.

Earthquake Activity

City Distance Mag. Time & Date
No recent earthquake activity has been reported nearby.
Minimum magnitude displayed is 2.5.

Coastal Water Temperatures

Place Temperature
No Stations Reporting

Nearby Weather Stations